Главная страница
METAR-TAF:

METAR-TAF

Аэропорты :

Тунис-Карфаген

Тунис, Тунис

широта: 36-50N, долгота: 010-14E, высота над уровнем моря: 3 м

Текущие метеонаблюдения

Эта сводка был подготовлена 27 минут назад, в 01:00 UTC
Ветер 8 Узел от северо-западный
Температура 22°C
Влажность 73%
Давление 1015 hPa
Видимость 10 км и более
Нет облачности ниже 1500 м, и нет кучево-дождевой облачности

METAR: DTTA 240100Z 31008KT CAVOK 22/17 Q1015 NOSIG

Время: 02:27 (01:27 UTC)

Прогноз

Эта сводка был подготовлена 2 часа и 27 минут назад, в 23:00 UTC
Прогноз действительный с 24-го 00 UTC до 24-го 24 UTC
Ветер 10 Узел от северо-западный
Видимость 10 км и более
Нет облачности ниже 1500 м, и нет кучево-дождевой облачности

TAF: DTTA 232300Z 2400/2424 31010KT CAVOK

Метеонаблюдения и прогнозы для более 4000 аэропортов (сводки METAR и TAF).

Имеющиеся станции представлены на карте желтыми и красными точками.

Чтобы увидеть название станции, наведите на нее мышь.

Затем щелкните, чтобы увидеть метеонаблюдения и метеопрогнозы.

Управление картой: чтобы увеличить масштаб, щелкните зеленые кнопки с черным крестиком; чтобы уменьшить масштаб, щелкните зеленую кнопку с тире; для просмотра соседних карт щелкайте зеленые стрелки.


METAR-TAF: